sensor_id;sensor_type;location;lat;lon;timestamp;P1;durP1;ratioP1;P2;durP2;ratioP2
22571;SDS011;11452;53.368;14.658;2023-12-20T00:03:25;5.63;;;4.77;;
22571;SDS011;11452;53.368;14.658;2023-12-20T00:08:31;4.67;;;4.10;;
22571;SDS011;11452;53.368;14.658;2023-12-20T00:13:36;4.70;;;4.27;;
22571;SDS011;11452;53.368;14.658;2023-12-20T00:18:42;5.57;;;4.17;;
22571;SDS011;11452;53.368;14.658;2023-12-20T00:23:48;5.83;;;4.47;;
22571;SDS011;11452;53.368;14.658;2023-12-20T00:28:54;7.03;;;4.83;;
22571;SDS011;11452;53.368;14.658;2023-12-20T00:33:59;4.10;;;3.70;;
22571;SDS011;11452;53.368;14.658;2023-12-20T00:39:06;4.53;;;3.70;;
22571;SDS011;11452;53.368;14.658;2023-12-20T00:44:12;4.00;;;3.57;;
22571;SDS011;11452;53.368;14.658;2023-12-20T00:49:17;4.27;;;3.87;;
22571;SDS011;11452;53.368;14.658;2023-12-20T00:54:23;3.47;;;2.80;;
22571;SDS011;11452;53.368;14.658;2023-12-20T00:59:29;3.90;;;3.40;;
22571;SDS011;11452;53.368;14.658;2023-12-20T01:04:35;3.07;;;2.70;;
22571;SDS011;11452;53.368;14.658;2023-12-20T01:09:41;4.60;;;2.70;;
22571;SDS011;11452;53.368;14.658;2023-12-20T01:14:47;3.03;;;2.47;;
22571;SDS011;11452;53.368;14.658;2023-12-20T01:19:52;4.07;;;2.30;;
22571;SDS011;11452;53.368;14.658;2023-12-20T01:24:58;2.97;;;2.00;;
22571;SDS011;11452;53.368;14.658;2023-12-20T01:30:04;2.73;;;2.50;;
22571;SDS011;11452;53.368;14.658;2023-12-20T01:35:11;3.20;;;2.20;;
22571;SDS011;11452;53.368;14.658;2023-12-20T01:40:17;2.50;;;2.00;;
22571;SDS011;11452;53.368;14.658;2023-12-20T01:45:24;3.70;;;2.37;;
22571;SDS011;11452;53.368;14.658;2023-12-20T01:50:30;4.43;;;2.57;;
22571;SDS011;11452;53.368;14.658;2023-12-20T01:55:38;3.43;;;2.60;;
22571;SDS011;11452;53.368;14.658;2023-12-20T02:00:45;2.07;;;1.97;;
22571;SDS011;11452;53.368;14.658;2023-12-20T02:05:51;3.23;;;2.00;;
22571;SDS011;11452;53.368;14.658;2023-12-20T02:10:57;1.97;;;1.77;;
22571;SDS011;11452;53.368;14.658;2023-12-20T02:16:03;2.73;;;1.73;;
22571;SDS011;11452;53.368;14.658;2023-12-20T02:21:11;2.33;;;1.80;;
22571;SDS011;11452;53.368;14.658;2023-12-20T02:26:16;2.60;;;2.13;;
22571;SDS011;11452;53.368;14.658;2023-12-20T02:31:23;3.47;;;2.03;;
22571;SDS011;11452;53.368;14.658;2023-12-20T02:36:28;4.00;;;2.13;;
22571;SDS011;11452;53.368;14.658;2023-12-20T02:41:34;2.53;;;2.27;;
22571;SDS011;11452;53.368;14.658;2023-12-20T02:46:40;3.63;;;2.10;;
22571;SDS011;11452;53.368;14.658;2023-12-20T02:51:45;2.23;;;1.80;;
22571;SDS011;11452;53.368;14.658;2023-12-20T02:56:51;2.67;;;1.70;;
22571;SDS011;11452;53.368;14.658;2023-12-20T03:01:57;3.57;;;1.60;;
22571;SDS011;11452;53.368;14.658;2023-12-20T03:07:03;2.70;;;1.90;;
22571;SDS011;11452;53.368;14.658;2023-12-20T03:12:08;3.13;;;1.97;;
22571;SDS011;11452;53.368;14.658;2023-12-20T03:17:14;3.30;;;1.57;;
22571;SDS011;11452;53.368;14.658;2023-12-20T03:22:20;3.73;;;1.70;;
22571;SDS011;11452;53.368;14.658;2023-12-20T03:27:26;2.27;;;1.53;;
22571;SDS011;11452;53.368;14.658;2023-12-20T03:32:31;3.73;;;1.53;;
22571;SDS011;11452;53.368;14.658;2023-12-20T03:37:37;1.90;;;1.67;;
22571;SDS011;11452;53.368;14.658;2023-12-20T03:42:43;1.97;;;1.53;;
22571;SDS011;11452;53.368;14.658;2023-12-20T03:47:49;3.17;;;1.50;;
22571;SDS011;11452;53.368;14.658;2023-12-20T03:52:56;1.50;;;1.30;;
22571;SDS011;11452;53.368;14.658;2023-12-20T03:58:02;2.40;;;1.70;;
22571;SDS011;11452;53.368;14.658;2023-12-20T04:03:08;2.43;;;1.50;;
22571;SDS011;11452;53.368;14.658;2023-12-20T04:08:15;2.37;;;1.50;;
22571;SDS011;11452;53.368;14.658;2023-12-20T04:13:21;1.83;;;1.40;;
22571;SDS011;11452;53.368;14.658;2023-12-20T04:18:27;2.93;;;1.97;;
22571;SDS011;11452;53.368;14.658;2023-12-20T04:23:33;1.53;;;1.30;;
22571;SDS011;11452;53.368;14.658;2023-12-20T04:28:38;2.57;;;1.50;;
22571;SDS011;11452;53.368;14.658;2023-12-20T04:33:44;4.10;;;1.70;;
22571;SDS011;11452;53.368;14.658;2023-12-20T04:38:50;1.63;;;1.53;;
22571;SDS011;11452;53.368;14.658;2023-12-20T04:43:55;3.33;;;1.50;;
22571;SDS011;11452;53.368;14.658;2023-12-20T04:49:01;3.13;;;1.70;;
22571;SDS011;11452;53.368;14.658;2023-12-20T04:54:07;2.43;;;1.50;;
22571;SDS011;11452;53.368;14.658;2023-12-20T04:59:14;3.57;;;1.67;;
22571;SDS011;11452;53.368;14.658;2023-12-20T05:04:20;1.93;;;1.40;;
22571;SDS011;11452;53.368;14.658;2023-12-20T05:09:25;3.70;;;1.60;;
22571;SDS011;11452;53.368;14.658;2023-12-20T05:14:31;4.20;;;1.80;;
22571;SDS011;11452;53.368;14.658;2023-12-20T05:19:37;2.10;;;1.40;;
22571;SDS011;11452;53.368;14.658;2023-12-20T05:24:43;2.07;;;1.50;;
22571;SDS011;11452;53.368;14.658;2023-12-20T05:29:49;2.50;;;1.67;;
22571;SDS011;11452;53.368;14.658;2023-12-20T05:34:55;3.07;;;1.47;;
22571;SDS011;11452;53.368;14.658;2023-12-20T05:40:01;3.47;;;1.83;;
22571;SDS011;11452;53.368;14.658;2023-12-20T05:45:06;2.87;;;1.80;;
22571;SDS011;11452;53.368;14.658;2023-12-20T05:50:12;3.57;;;2.07;;
22571;SDS011;11452;53.368;14.658;2023-12-20T05:55:18;3.77;;;1.83;;
22571;SDS011;11452;53.368;14.658;2023-12-20T06:00:24;3.80;;;1.97;;
22571;SDS011;11452;53.368;14.658;2023-12-20T06:05:30;5.63;;;2.03;;
22571;SDS011;11452;53.368;14.658;2023-12-20T06:10:36;3.07;;;1.53;;
22571;SDS011;11452;53.368;14.658;2023-12-20T06:15:41;4.00;;;2.03;;
22571;SDS011;11452;53.368;14.658;2023-12-20T06:20:47;5.30;;;2.10;;
22571;SDS011;11452;53.368;14.658;2023-12-20T06:25:53;2.90;;;1.40;;
22571;SDS011;11452;53.368;14.658;2023-12-20T06:30:59;4.60;;;1.80;;
22571;SDS011;11452;53.368;14.658;2023-12-20T06:36:05;7.83;;;2.60;;
22571;SDS011;11452;53.368;14.658;2023-12-20T06:41:12;3.10;;;2.10;;
22571;SDS011;11452;53.368;14.658;2023-12-20T06:46:19;2.93;;;1.70;;
22571;SDS011;11452;53.368;14.658;2023-12-20T06:51:25;3.00;;;1.73;;
22571;SDS011;11452;53.368;14.658;2023-12-20T06:56:30;7.40;;;2.20;;
22571;SDS011;11452;53.368;14.658;2023-12-20T07:01:36;6.23;;;2.50;;
22571;SDS011;11452;53.368;14.658;2023-12-20T07:06:42;6.97;;;2.40;;
22571;SDS011;11452;53.368;14.658;2023-12-20T07:11:49;6.97;;;2.77;;
22571;SDS011;11452;53.368;14.658;2023-12-20T07:16:55;3.67;;;2.33;;
22571;SDS011;11452;53.368;14.658;2023-12-20T07:22:00;9.70;;;3.40;;
22571;SDS011;11452;53.368;14.658;2023-12-20T07:27:06;6.53;;;2.97;;
22571;SDS011;11452;53.368;14.658;2023-12-20T07:32:12;5.50;;;3.10;;
22571;SDS011;11452;53.368;14.658;2023-12-20T07:37:18;5.33;;;3.20;;
22571;SDS011;11452;53.368;14.658;2023-12-20T07:42:25;9.97;;;2.83;;
22571;SDS011;11452;53.368;14.658;2023-12-20T07:47:31;7.03;;;3.10;;
22571;SDS011;11452;53.368;14.658;2023-12-20T07:52:37;5.10;;;2.70;;
22571;SDS011;11452;53.368;14.658;2023-12-20T07:57:42;7.37;;;3.00;;
22571;SDS011;11452;53.368;14.658;2023-12-20T08:02:49;9.40;;;3.53;;
22571;SDS011;11452;53.368;14.658;2023-12-20T08:07:54;7.97;;;3.07;;
22571;SDS011;11452;53.368;14.658;2023-12-20T08:13:00;6.73;;;2.47;;
22571;SDS011;11452;53.368;14.658;2023-12-20T08:18:06;5.07;;;2.50;;
22571;SDS011;11452;53.368;14.658;2023-12-20T08:23:12;10.13;;;3.27;;
22571;SDS011;11452;53.368;14.658;2023-12-20T08:28:18;8.63;;;3.80;;
22571;SDS011;11452;53.368;14.658;2023-12-20T08:33:24;7.43;;;3.03;;
22571;SDS011;11452;53.368;14.658;2023-12-20T08:38:30;4.03;;;2.27;;
22571;SDS011;11452;53.368;14.658;2023-12-20T08:43:35;7.80;;;2.63;;
22571;SDS011;11452;53.368;14.658;2023-12-20T08:48:43;6.40;;;2.30;;
22571;SDS011;11452;53.368;14.658;2023-12-20T08:53:49;7.27;;;2.40;;
22571;SDS011;11452;53.368;14.658;2023-12-20T08:58:55;3.63;;;1.97;;
22571;SDS011;11452;53.368;14.658;2023-12-20T09:04:00;7.03;;;3.20;;
22571;SDS011;11452;53.368;14.658;2023-12-20T09:09:06;7.67;;;2.30;;
22571;SDS011;11452;53.368;14.658;2023-12-20T09:14:14;8.57;;;2.50;;
22571;SDS011;11452;53.368;14.658;2023-12-20T09:19:19;4.80;;;2.23;;
22571;SDS011;11452;53.368;14.658;2023-12-20T09:24:25;6.03;;;2.47;;
22571;SDS011;11452;53.368;14.658;2023-12-20T09:29:31;4.47;;;2.63;;
22571;SDS011;11452;53.368;14.658;2023-12-20T09:34:37;5.53;;;2.07;;
22571;SDS011;11452;53.368;14.658;2023-12-20T09:39:43;6.63;;;2.40;;
22571;SDS011;11452;53.368;14.658;2023-12-20T09:44:49;5.83;;;2.50;;
22571;SDS011;11452;53.368;14.658;2023-12-20T09:49:55;7.30;;;2.43;;
22571;SDS011;11452;53.368;14.658;2023-12-20T09:55:03;6.50;;;2.73;;
22571;SDS011;11452;53.368;14.658;2023-12-20T10:00:13;5.70;;;2.37;;
22571;SDS011;11452;53.368;14.658;2023-12-20T10:05:23;3.93;;;2.10;;
22571;SDS011;11452;53.368;14.658;2023-12-20T10:10:30;7.70;;;2.20;;
22571;SDS011;11452;53.368;14.658;2023-12-20T10:15:37;11.63;;;4.23;;
22571;SDS011;11452;53.368;14.658;2023-12-20T10:20:46;5.50;;;2.93;;
22571;SDS011;11452;53.368;14.658;2023-12-20T10:25:58;6.30;;;2.50;;
22571;SDS011;11452;53.368;14.658;2023-12-20T10:31:04;3.73;;;2.30;;
22571;SDS011;11452;53.368;14.658;2023-12-20T10:36:10;7.30;;;2.80;;
22571;SDS011;11452;53.368;14.658;2023-12-20T10:41:18;6.97;;;2.60;;
22571;SDS011;11452;53.368;14.658;2023-12-20T10:46:26;11.13;;;3.03;;
22571;SDS011;11452;53.368;14.658;2023-12-20T10:51:37;8.57;;;3.10;;
22571;SDS011;11452;53.368;14.658;2023-12-20T10:56:43;9.63;;;3.87;;
22571;SDS011;11452;53.368;14.658;2023-12-20T11:01:48;6.23;;;3.00;;
22571;SDS011;11452;53.368;14.658;2023-12-20T11:07:19;6.13;;;2.83;;
22571;SDS011;11452;53.368;14.658;2023-12-20T11:12:26;4.87;;;2.50;;
22571;SDS011;11452;53.368;14.658;2023-12-20T11:17:32;8.47;;;2.77;;
22571;SDS011;11452;53.368;14.658;2023-12-20T11:22:38;5.10;;;2.90;;
22571;SDS011;11452;53.368;14.658;2023-12-20T11:28:34;4.90;;;2.43;;
22571;SDS011;11452;53.368;14.658;2023-12-20T11:33:14;6.40;;;2.83;;
22571;SDS011;11452;53.368;14.658;2023-12-20T11:38:20;4.07;;;2.57;;
22571;SDS011;11452;53.368;14.658;2023-12-20T11:43:29;4.80;;;2.30;;
22571;SDS011;11452;53.368;14.658;2023-12-20T11:48:42;6.03;;;2.30;;
22571;SDS011;11452;53.368;14.658;2023-12-20T11:53:44;6.93;;;2.17;;
22571;SDS011;11452;53.368;14.658;2023-12-20T11:58:51;6.50;;;2.07;;
22571;SDS011;11452;53.368;14.658;2023-12-20T12:04:02;5.10;;;2.40;;
22571;SDS011;11452;53.368;14.658;2023-12-20T12:09:08;4.60;;;2.10;;
22571;SDS011;11452;53.368;14.658;2023-12-20T12:14:14;7.37;;;2.43;;
22571;SDS011;11452;53.368;14.658;2023-12-20T12:19:21;3.53;;;1.70;;
22571;SDS011;11452;53.368;14.658;2023-12-20T12:24:27;5.47;;;1.87;;
22571;SDS011;11452;53.368;14.658;2023-12-20T12:29:33;6.97;;;2.50;;
22571;SDS011;11452;53.368;14.658;2023-12-20T12:34:40;5.33;;;2.00;;
22571;SDS011;11452;53.368;14.658;2023-12-20T12:39:49;5.30;;;2.23;;
22571;SDS011;11452;53.368;14.658;2023-12-20T12:44:55;7.27;;;2.90;;
22571;SDS011;11452;53.368;14.658;2023-12-20T12:50:01;6.70;;;1.93;;
22571;SDS011;11452;53.368;14.658;2023-12-20T12:55:07;5.53;;;2.23;;
22571;SDS011;11452;53.368;14.658;2023-12-20T13:00:13;4.20;;;1.87;;
22571;SDS011;11452;53.368;14.658;2023-12-20T13:05:19;4.80;;;2.37;;
22571;SDS011;11452;53.368;14.658;2023-12-20T13:10:25;4.77;;;2.10;;
22571;SDS011;11452;53.368;14.658;2023-12-20T13:15:31;6.17;;;2.10;;
22571;SDS011;11452;53.368;14.658;2023-12-20T13:20:37;7.77;;;2.63;;
22571;SDS011;11452;53.368;14.658;2023-12-20T13:25:44;2.27;;;1.27;;
22571;SDS011;11452;53.368;14.658;2023-12-20T13:30:50;3.20;;;1.40;;
22571;SDS011;11452;53.368;14.658;2023-12-20T13:35:56;4.00;;;1.50;;
22571;SDS011;11452;53.368;14.658;2023-12-20T13:41:05;2.53;;;1.27;;
22571;SDS011;11452;53.368;14.658;2023-12-20T13:46:10;2.40;;;1.47;;
22571;SDS011;11452;53.368;14.658;2023-12-20T13:51:17;2.30;;;1.20;;
22571;SDS011;11452;53.368;14.658;2023-12-20T13:56:25;4.40;;;1.40;;
22571;SDS011;11452;53.368;14.658;2023-12-20T14:01:30;2.67;;;1.27;;
22571;SDS011;11452;53.368;14.658;2023-12-20T14:06:36;2.63;;;1.00;;
22571;SDS011;11452;53.368;14.658;2023-12-20T14:11:42;1.93;;;1.07;;
22571;SDS011;11452;53.368;14.658;2023-12-20T14:16:48;0.80;;;0.80;;
22571;SDS011;11452;53.368;14.658;2023-12-20T14:21:54;3.53;;;1.00;;
22571;SDS011;11452;53.368;14.658;2023-12-20T14:27:00;1.70;;;0.90;;
22571;SDS011;11452;53.368;14.658;2023-12-20T14:32:06;1.90;;;1.07;;
22571;SDS011;11452;53.368;14.658;2023-12-20T14:37:12;4.93;;;0.90;;
22571;SDS011;11452;53.368;14.658;2023-12-20T14:42:18;2.30;;;1.37;;
22571;SDS011;11452;53.368;14.658;2023-12-20T14:47:24;2.93;;;1.00;;
22571;SDS011;11452;53.368;14.658;2023-12-20T14:52:30;1.77;;;1.30;;
22571;SDS011;11452;53.368;14.658;2023-12-20T14:57:37;4.00;;;1.43;;
22571;SDS011;11452;53.368;14.658;2023-12-20T15:02:43;2.57;;;1.60;;
22571;SDS011;11452;53.368;14.658;2023-12-20T15:07:49;2.23;;;1.70;;
22571;SDS011;11452;53.368;14.658;2023-12-20T15:12:55;2.43;;;1.57;;
22571;SDS011;11452;53.368;14.658;2023-12-20T15:18:00;3.23;;;1.30;;
22571;SDS011;11452;53.368;14.658;2023-12-20T15:23:09;3.00;;;1.30;;
22571;SDS011;11452;53.368;14.658;2023-12-20T15:28:15;4.90;;;1.47;;
22571;SDS011;11452;53.368;14.658;2023-12-20T15:33:21;3.83;;;1.40;;
22571;SDS011;11452;53.368;14.658;2023-12-20T15:38:26;3.47;;;1.77;;
22571;SDS011;11452;53.368;14.658;2023-12-20T15:43:32;2.40;;;1.43;;
22571;SDS011;11452;53.368;14.658;2023-12-20T15:48:40;1.80;;;0.80;;
22571;SDS011;11452;53.368;14.658;2023-12-20T15:53:46;2.20;;;1.27;;
22571;SDS011;11452;53.368;14.658;2023-12-20T15:58:52;2.17;;;1.17;;
22571;SDS011;11452;53.368;14.658;2023-12-20T16:03:58;2.80;;;1.43;;
22571;SDS011;11452;53.368;14.658;2023-12-20T16:09:04;3.53;;;1.40;;
22571;SDS011;11452;53.368;14.658;2023-12-20T16:14:11;5.43;;;1.93;;
22571;SDS011;11452;53.368;14.658;2023-12-20T16:19:21;3.47;;;1.90;;
22571;SDS011;11452;53.368;14.658;2023-12-20T16:24:28;6.87;;;2.17;;
22571;SDS011;11452;53.368;14.658;2023-12-20T16:29:35;2.50;;;1.73;;
22571;SDS011;11452;53.368;14.658;2023-12-20T16:34:41;4.77;;;2.23;;
22571;SDS011;11452;53.368;14.658;2023-12-20T16:39:48;5.63;;;2.33;;
22571;SDS011;11452;53.368;14.658;2023-12-20T16:44:54;4.63;;;2.37;;
22571;SDS011;11452;53.368;14.658;2023-12-20T16:50:00;3.43;;;2.37;;
22571;SDS011;11452;53.368;14.658;2023-12-20T16:55:08;4.70;;;2.40;;
22571;SDS011;11452;53.368;14.658;2023-12-20T17:00:15;6.17;;;2.37;;
22571;SDS011;11452;53.368;14.658;2023-12-20T17:05:21;7.33;;;2.40;;
22571;SDS011;11452;53.368;14.658;2023-12-20T17:10:27;6.43;;;2.67;;
22571;SDS011;11452;53.368;14.658;2023-12-20T17:15:33;10.63;;;2.70;;
22571;SDS011;11452;53.368;14.658;2023-12-20T17:20:39;6.23;;;2.50;;
22571;SDS011;11452;53.368;14.658;2023-12-20T17:25:45;6.17;;;2.47;;
22571;SDS011;11452;53.368;14.658;2023-12-20T17:30:51;6.63;;;2.47;;
22571;SDS011;11452;53.368;14.658;2023-12-20T17:35:56;3.33;;;2.10;;
22571;SDS011;11452;53.368;14.658;2023-12-20T17:41:03;4.97;;;1.57;;
22571;SDS011;11452;53.368;14.658;2023-12-20T17:46:09;6.57;;;2.30;;
22571;SDS011;11452;53.368;14.658;2023-12-20T17:51:14;4.80;;;2.57;;
22571;SDS011;11452;53.368;14.658;2023-12-20T17:56:20;5.90;;;2.23;;
22571;SDS011;11452;53.368;14.658;2023-12-20T18:01:27;4.43;;;2.40;;
22571;SDS011;11452;53.368;14.658;2023-12-20T18:06:32;4.57;;;2.30;;
22571;SDS011;11452;53.368;14.658;2023-12-20T18:11:38;9.03;;;2.60;;
22571;SDS011;11452;53.368;14.658;2023-12-20T18:16:44;6.00;;;2.87;;
22571;SDS011;11452;53.368;14.658;2023-12-20T18:21:50;5.20;;;2.77;;
22571;SDS011;11452;53.368;14.658;2023-12-20T18:26:55;6.63;;;2.57;;
22571;SDS011;11452;53.368;14.658;2023-12-20T18:32:01;6.30;;;2.70;;
22571;SDS011;11452;53.368;14.658;2023-12-20T18:37:07;7.37;;;2.37;;
22571;SDS011;11452;53.368;14.658;2023-12-20T18:42:16;7.17;;;2.57;;
22571;SDS011;11452;53.368;14.658;2023-12-20T18:47:22;7.17;;;2.97;;
22571;SDS011;11452;53.368;14.658;2023-12-20T18:52:28;8.57;;;3.23;;
22571;SDS011;11452;53.368;14.658;2023-12-20T18:57:34;9.83;;;3.20;;
22571;SDS011;11452;53.368;14.658;2023-12-20T19:02:40;6.77;;;2.50;;
22571;SDS011;11452;53.368;14.658;2023-12-20T19:07:46;8.30;;;3.33;;
22571;SDS011;11452;53.368;14.658;2023-12-20T19:12:53;8.23;;;3.10;;
22571;SDS011;11452;53.368;14.658;2023-12-20T19:17:58;10.47;;;3.70;;
22571;SDS011;11452;53.368;14.658;2023-12-20T19:23:04;14.53;;;4.40;;
22571;SDS011;11452;53.368;14.658;2023-12-20T19:28:12;9.70;;;3.83;;
22571;SDS011;11452;53.368;14.658;2023-12-20T19:33:18;9.40;;;3.23;;
22571;SDS011;11452;53.368;14.658;2023-12-20T19:38:24;7.30;;;3.17;;
22571;SDS011;11452;53.368;14.658;2023-12-20T19:43:30;6.60;;;2.90;;
22571;SDS011;11452;53.368;14.658;2023-12-20T19:48:36;11.63;;;3.30;;
22571;SDS011;11452;53.368;14.658;2023-12-20T19:53:42;13.03;;;3.50;;
22571;SDS011;11452;53.368;14.658;2023-12-20T19:58:48;11.40;;;3.57;;
22571;SDS011;11452;53.368;14.658;2023-12-20T20:03:54;5.37;;;3.27;;
22571;SDS011;11452;53.368;14.658;2023-12-20T20:09:00;7.27;;;3.13;;
22571;SDS011;11452;53.368;14.658;2023-12-20T20:14:09;8.50;;;3.63;;
22571;SDS011;11452;53.368;14.658;2023-12-20T20:19:15;7.43;;;3.07;;
22571;SDS011;11452;53.368;14.658;2023-12-20T20:24:23;7.43;;;3.23;;
22571;SDS011;11452;53.368;14.658;2023-12-20T20:29:29;7.20;;;3.00;;
22571;SDS011;11452;53.368;14.658;2023-12-20T20:34:36;9.67;;;3.33;;
22571;SDS011;11452;53.368;14.658;2023-12-20T20:39:42;6.37;;;3.77;;
22571;SDS011;11452;53.368;14.658;2023-12-20T20:44:50;10.30;;;3.40;;
22571;SDS011;11452;53.368;14.658;2023-12-20T20:49:56;8.30;;;3.47;;
22571;SDS011;11452;53.368;14.658;2023-12-20T20:55:02;9.00;;;2.80;;
22571;SDS011;11452;53.368;14.658;2023-12-20T21:00:09;10.27;;;3.13;;
22571;SDS011;11452;53.368;14.658;2023-12-20T21:05:15;6.50;;;3.17;;
22571;SDS011;11452;53.368;14.658;2023-12-20T21:10:21;9.57;;;3.23;;
22571;SDS011;11452;53.368;14.658;2023-12-20T21:15:27;5.80;;;2.50;;
22571;SDS011;11452;53.368;14.658;2023-12-20T21:20:33;10.53;;;3.00;;
22571;SDS011;11452;53.368;14.658;2023-12-20T21:25:38;9.63;;;3.23;;
22571;SDS011;11452;53.368;14.658;2023-12-20T21:30:44;8.30;;;2.60;;
22571;SDS011;11452;53.368;14.658;2023-12-20T21:35:50;6.67;;;2.70;;
22571;SDS011;11452;53.368;14.658;2023-12-20T21:40:56;8.40;;;2.50;;
22571;SDS011;11452;53.368;14.658;2023-12-20T21:46:02;6.37;;;2.93;;
22571;SDS011;11452;53.368;14.658;2023-12-20T21:51:08;6.27;;;2.80;;
22571;SDS011;11452;53.368;14.658;2023-12-20T21:56:15;7.13;;;2.60;;
22571;SDS011;11452;53.368;14.658;2023-12-20T22:01:21;7.07;;;2.97;;
22571;SDS011;11452;53.368;14.658;2023-12-20T22:06:27;6.77;;;2.30;;
22571;SDS011;11452;53.368;14.658;2023-12-20T22:11:32;10.80;;;2.73;;
22571;SDS011;11452;53.368;14.658;2023-12-20T22:16:38;8.07;;;2.40;;
22571;SDS011;11452;53.368;14.658;2023-12-20T22:21:45;5.27;;;2.30;;
22571;SDS011;11452;53.368;14.658;2023-12-20T22:26:50;8.63;;;3.33;;
22571;SDS011;11452;53.368;14.658;2023-12-20T22:31:57;4.17;;;2.13;;
22571;SDS011;11452;53.368;14.658;2023-12-20T22:37:03;10.13;;;2.47;;
22571;SDS011;11452;53.368;14.658;2023-12-20T22:42:09;6.20;;;2.10;;
22571;SDS011;11452;53.368;14.658;2023-12-20T22:47:15;4.63;;;2.37;;
22571;SDS011;11452;53.368;14.658;2023-12-20T22:52:20;7.97;;;2.87;;
22571;SDS011;11452;53.368;14.658;2023-12-20T22:57:26;6.03;;;1.93;;
22571;SDS011;11452;53.368;14.658;2023-12-20T23:02:32;5.17;;;2.40;;
22571;SDS011;11452;53.368;14.658;2023-12-20T23:07:37;8.37;;;2.13;;
22571;SDS011;11452;53.368;14.658;2023-12-20T23:12:43;5.87;;;2.50;;
22571;SDS011;11452;53.368;14.658;2023-12-20T23:17:49;2.87;;;2.17;;
22571;SDS011;11452;53.368;14.658;2023-12-20T23:22:57;4.43;;;2.00;;
22571;SDS011;11452;53.368;14.658;2023-12-20T23:28:02;4.97;;;2.20;;
22571;SDS011;11452;53.368;14.658;2023-12-20T23:33:09;6.90;;;2.10;;
22571;SDS011;11452;53.368;14.658;2023-12-20T23:38:14;6.07;;;2.17;;
22571;SDS011;11452;53.368;14.658;2023-12-20T23:43:20;8.43;;;1.87;;
22571;SDS011;11452;53.368;14.658;2023-12-20T23:48:26;4.70;;;1.70;;
22571;SDS011;11452;53.368;14.658;2023-12-20T23:53:31;6.30;;;1.60;;
22571;SDS011;11452;53.368;14.658;2023-12-20T23:58:37;4.80;;;1.70;;
